Time;durP1;ratioP1;P1;durP2;ratioP2;P2;SDS_P1;SDS_P2;PMS_P1;PMS_P2;Temp;Humidity;BMP_temperature;BMP_pressure;BME280_temperature;BME280_humidity;BME280_pressure;Samples;Min_cycle;Max_cycle;Signal;HPM_P1;HPM_P2
2022/03/27 00:00:19;;;;;;;;;;;10.70;81.40;;;;;;5043850;28;20006;-80
2022/03/27 00:02:44;;;;;;;;;;;10.70;81.60;;;;;;5029730;28;19917;-79
2022/03/27 00:05:10;;;;;;;;;;;10.70;81.50;;;;;;5029377;28;20445;-78
2022/03/27 00:07:37;;;;;;;;;;;10.60;81.90;;;;;;5028765;28;19913;-78
2022/03/27 00:10:03;;;;;;;;;;;10.60;81.80;;;;;;5025965;28;20332;-78
2022/03/27 00:12:28;;;;;;;;;;;10.60;81.90;;;;;;5028102;28;20341;-78
2022/03/27 00:14:54;;;;;;;;;;;10.60;82.00;;;;;;5028918;28;19917;-79
2022/03/27 00:17:19;;;;;;;;;;;10.60;81.90;;;;;;5029457;28;20019;-79
2022/03/27 00:19:45;;;;;;;;;;;10.50;82.10;;;;;;5031820;28;19917;-78
2022/03/27 00:22:10;;;;;;;;;;;10.40;82.30;;;;;;5031696;28;19923;-79
2022/03/27 00:24:36;;;;;;;;;;;10.40;82.40;;;;;;5027948;28;19917;-78
2022/03/27 00:27:01;;;;;;;;;;;10.50;82.30;;;;;;5027784;28;19920;-79
2022/03/27 00:29:27;;;;;;;;;;;10.40;82.40;;;;;;5021906;28;19941;-79
2022/03/27 00:31:53;;;;;;;;;;;10.40;82.50;;;;;;5028149;28;19913;-79
2022/03/27 00:34:21;;;;;;;;;;;10.30;82.70;;;;;;5029661;28;20364;-80
2022/03/27 00:36:46;;;;;;;;;;;10.40;82.70;;;;;;5029098;28;19913;-80
2022/03/27 00:39:12;;;;;;;;;;;10.30;82.80;;;;;;5028574;28;20404;-79
2022/03/27 00:41:37;;;;;;;;;;;10.20;83.20;;;;;;5029496;28;19917;-79
2022/03/27 00:44:03;;;;;;;;;;;10.30;83.10;;;;;;5028730;28;20041;-79
2022/03/27 00:46:29;;;;;;;;;;;10.30;82.80;;;;;;5027933;28;20284;-79
2022/03/27 00:48:54;;;;;;;;;;;10.30;82.50;;;;;;5029378;28;20014;-79
2022/03/27 00:51:20;;;;;;;;;;;10.30;82.90;;;;;;5028837;28;20336;-80
2022/03/27 00:53:45;;;;;;;;;;;10.20;83.30;;;;;;5029572;28;19923;-79
2022/03/27 00:56:11;;;;;;;;;;;10.10;83.50;;;;;;5029807;28;19935;-80
2022/03/27 00:58:36;;;;;;;;;;;10.10;83.60;;;;;;5027478;28;19924;-78
2022/03/27 01:01:02;;;;;;;;;;;10.10;83.80;;;;;;5030220;28;19917;-79
2022/03/27 01:03:27;;;;;;;;;;;10.00;83.90;;;;;;5028790;28;20035;-79
2022/03/27 01:05:57;;;;;;;;;;;9.90;84.10;;;;;;5029982;28;19949;-78
2022/03/27 01:11:18;;;;;;;;;;;9.90;84.20;;;;;;5021681;28;19922;-78
2022/03/27 01:13:47;;;;;;;;;;;10.00;84.60;;;;;;5027804;28;20381;-78
2022/03/27 01:16:16;;;;;;;;;;;9.90;84.70;;;;;;5028376;28;19940;-78
2022/03/27 01:18:42;;;;;;;;;;;9.90;84.90;;;;;;5025434;28;19921;-79
2022/03/27 01:21:08;;;;;;;;;;;9.90;84.40;;;;;;5029366;28;19928;-78
2022/03/27 01:23:34;;;;;;;;;;;10.00;84.70;;;;;;5028296;28;20062;-79
2022/03/27 01:25:59;;;;;;;;;;;9.90;84.70;;;;;;5029156;28;19958;-79
2022/03/27 01:28:25;;;;;;;;;;;9.80;84.90;;;;;;5026884;28;19921;-78
2022/03/27 01:30:50;;;;;;;;;;;9.80;85.30;;;;;;5025250;28;19920;-79
2022/03/27 01:33:16;;;;;;;;;;;9.80;85.20;;;;;;5030800;28;20006;-78
2022/03/27 01:35:41;;;;;;;;;;;9.80;85.30;;;;;;5032328;28;19913;-79
2022/03/27 01:38:07;;;;;;;;;;;9.70;85.60;;;;;;5028275;28;20304;-79
2022/03/27 01:40:32;;;;;;;;;;;9.60;85.80;;;;;;5026328;28;20032;-76
2022/03/27 01:42:57;;;;;;;;;;;9.60;85.60;;;;;;5029256;28;19917;-76
2022/03/27 01:45:23;;;;;;;;;;;9.60;85.70;;;;;;5027761;28;19987;-75
2022/03/27 01:47:49;;;;;;;;;;;9.60;85.90;;;;;;5026904;28;19917;-76
2022/03/27 01:50:14;;;;;;;;;;;9.60;86.00;;;;;;5026603;28;19922;-75
2022/03/27 01:52:40;;;;;;;;;;;9.60;85.80;;;;;;5029895;28;19971;-76
2022/03/27 01:55:07;;;;;;;;;;;9.60;86.00;;;;;;5029114;28;19924;-76
2022/03/27 01:57:33;;;;;;;;;;;9.60;86.00;;;;;;5032489;28;20378;-76
2022/03/27 01:59:58;;;;;;;;;;;9.60;85.80;;;;;;5033678;28;19912;-76
2022/03/27 02:02:24;;;;;;;;;;;9.50;86.10;;;;;;5032509;28;19927;-75
2022/03/27 02:04:50;;;;;;;;;;;9.40;86.30;;;;;;5033572;28;20293;-76
2022/03/27 02:07:17;;;;;;;;;;;9.50;86.30;;;;;;5032401;28;20274;-78
2022/03/27 02:09:42;;;;;;;;;;;9.50;86.30;;;;;;5033286;28;19913;-78
2022/03/27 02:12:08;;;;;;;;;;;9.40;86.40;;;;;;5033483;28;19913;-78
2022/03/27 02:14:34;;;;;;;;;;;9.40;86.40;;;;;;5034645;28;20019;-78
2022/03/27 02:16:59;;;;;;;;;;;9.40;86.40;;;;;;5030619;28;19928;-79
2022/03/27 02:19:25;;;;;;;;;;;9.40;86.30;;;;;;5033305;28;19921;-79
2022/03/27 02:21:51;;;;;;;;;;;9.30;86.30;;;;;;5032788;28;19917;-79
2022/03/27 02:24:17;;;;;;;;;;;9.30;86.50;;;;;;5034502;28;20470;-79
2022/03/27 02:26:44;;;;;;;;;;;9.30;86.40;;;;;;5031702;28;20377;-76
2022/03/27 02:29:11;;;;;;;;;;;9.20;86.40;;;;;;5028231;28;20338;-76
2022/03/27 02:31:38;;;;;;;;;;;9.30;86.50;;;;;;5031556;28;19966;-76
2022/03/27 02:34:04;;;;;;;;;;;9.30;86.40;;;;;;5034273;28;19921;-76
2022/03/27 02:36:29;;;;;;;;;;;9.20;86.70;;;;;;5028704;28;20357;-76
2022/03/27 02:38:55;;;;;;;;;;;9.10;86.80;;;;;;5032240;28;19921;-78
2022/03/27 02:41:21;;;;;;;;;;;9.10;87.00;;;;;;5029696;28;19920;-77
2022/03/27 02:43:46;;;;;;;;;;;9.00;87.00;;;;;;5028345;28;19913;-76
2022/03/27 02:46:12;;;;;;;;;;;9.00;87.50;;;;;;5032042;28;20381;-76
2022/03/27 02:48:38;;;;;;;;;;;9.00;87.40;;;;;;5031073;28;20263;-76
2022/03/27 02:51:03;;;;;;;;;;;9.00;87.60;;;;;;5032292;28;20320;-79
2022/03/27 02:53:29;;;;;;;;;;;9.00;87.40;;;;;;5032931;28;19913;-78
2022/03/27 02:55:54;;;;;;;;;;;9.00;87.40;;;;;;5030476;28;20285;-77
2022/03/27 02:58:20;;;;;;;;;;;9.00;87.50;;;;;;5032296;28;20298;-78
2022/03/27 03:00:46;;;;;;;;;;;8.90;87.60;;;;;;5033678;28;19998;-76
2022/03/27 03:03:13;;;;;;;;;;;8.90;87.50;;;;;;5028384;28;19952;-74
2022/03/27 03:05:39;;;;;;;;;;;9.00;87.60;;;;;;5029949;28;19917;-75
2022/03/27 03:08:11;;;;;;;;;;;9.00;87.50;;;;;;5028415;28;20071;-77
2022/03/27 03:10:37;;;;;;;;;;;9.10;87.50;;;;;;5029583;28;20496;-75
2022/03/27 03:13:03;;;;;;;;;;;9.10;87.60;;;;;;5030127;28;19967;-76
2022/03/27 03:15:29;;;;;;;;;;;9.20;87.40;;;;;;5030514;28;19917;-75
2022/03/27 03:17:54;;;;;;;;;;;9.20;87.10;;;;;;5029492;28;20364;-75
2022/03/27 03:20:20;;;;;;;;;;;9.20;87.10;;;;;;5028834;28;19921;-76
2022/03/27 03:22:45;;;;;;;;;;;9.30;87.00;;;;;;5029955;28;19960;-76
2022/03/27 03:25:11;;;;;;;;;;;9.30;86.90;;;;;;5030101;28;20328;-75
2022/03/27 03:27:37;;;;;;;;;;;9.30;87.00;;;;;;5029890;28;20361;-75
2022/03/27 03:30:04;;;;;;;;;;;9.30;87.00;;;;;;5028872;28;20250;-75
2022/03/27 03:32:29;;;;;;;;;;;9.40;87.00;;;;;;5029435;28;19913;-75
2022/03/27 03:34:54;;;;;;;;;;;9.40;86.70;;;;;;5029329;28;19913;-75
2022/03/27 03:37:20;;;;;;;;;;;9.40;86.60;;;;;;5029353;28;19936;-76
2022/03/27 03:39:46;;;;;;;;;;;9.40;86.50;;;;;;5027849;28;19917;-76
2022/03/27 03:42:11;;;;;;;;;;;9.30;86.40;;;;;;5029230;28;20020;-76
2022/03/27 03:44:37;;;;;;;;;;;9.40;86.40;;;;;;5027922;28;19960;-76
2022/03/27 03:47:03;;;;;;;;;;;9.40;86.20;;;;;;5027424;28;19913;-75
2022/03/27 03:49:28;;;;;;;;;;;9.50;86.00;;;;;;5028859;28;20007;-75
2022/03/27 03:51:54;;;;;;;;;;;9.50;86.00;;;;;;5029488;28;20004;-76
2022/03/27 03:54:19;;;;;;;;;;;9.60;86.00;;;;;;5028225;28;20080;-75
2022/03/27 03:56:45;;;;;;;;;;;9.60;85.90;;;;;;5029257;28;20066;-77
2022/03/27 03:59:10;;;;;;;;;;;9.60;85.70;;;;;;5029493;28;19913;-76
2022/03/27 04:01:36;;;;;;;;;;;9.60;85.40;;;;;;5027081;28;20020;-77
2022/03/27 04:04:01;;;;;;;;;;;9.60;85.70;;;;;;5028131;28;19919;-75
2022/03/27 04:06:27;;;;;;;;;;;9.60;85.90;;;;;;5028081;28;19920;-76
2022/03/27 04:08:52;;;;;;;;;;;9.50;86.20;;;;;;5027883;28;20425;-78
2022/03/27 04:11:18;;;;;;;;;;;9.50;86.50;;;;;;5028319;28;20011;-79
2022/03/27 04:13:43;;;;;;;;;;;9.50;86.60;;;;;;5028814;28;19917;-78
2022/03/27 04:16:10;;;;;;;;;;;9.50;86.60;;;;;;5027012;28;19914;-78
2022/03/27 04:18:35;;;;;;;;;;;9.50;86.80;;;;;;5028816;28;20016;-78
2022/03/27 04:21:00;;;;;;;;;;;9.60;86.50;;;;;;5026354;28;20008;-79
2022/03/27 04:23:26;;;;;;;;;;;9.60;86.40;;;;;;5027871;28;19917;-79
2022/03/27 04:25:51;;;;;;;;;;;9.70;86.10;;;;;;5026824;28;19924;-78
2022/03/27 04:28:17;;;;;;;;;;;9.70;86.00;;;;;;5027555;28;19914;-79
2022/03/27 04:30:42;;;;;;;;;;;9.70;86.10;;;;;;5026947;28;20338;-79
2022/03/27 04:33:08;;;;;;;;;;;9.70;86.20;;;;;;5028040;28;19921;-78
2022/03/27 04:35:34;;;;;;;;;;;9.80;86.10;;;;;;5026881;28;19920;-78
2022/03/27 04:38:00;;;;;;;;;;;9.80;86.10;;;;;;5029613;28;19909;-79
2022/03/27 04:40:25;;;;;;;;;;;9.70;86.00;;;;;;5027464;28;19947;-78
2022/03/27 04:42:51;;;;;;;;;;;9.70;86.20;;;;;;5027863;28;19925;-79
2022/03/27 04:45:17;;;;;;;;;;;9.80;86.00;;;;;;5027354;28;19923;-78
2022/03/27 04:47:42;;;;;;;;;;;9.80;85.70;;;;;;5026676;28;19996;-78
2022/03/27 04:50:08;;;;;;;;;;;9.80;86.00;;;;;;5024625;28;20373;-78
2022/03/27 04:52:34;;;;;;;;;;;9.70;86.30;;;;;;5026589;28;20357;-77
2022/03/27 04:55:00;;;;;;;;;;;9.70;86.40;;;;;;5028835;28;20004;-78
2022/03/27 04:57:31;;;;;;;;;;;9.60;86.40;;;;;;5026931;28;20002;-79
2022/03/27 04:59:57;;;;;;;;;;;9.60;86.40;;;;;;5034889;28;19913;-78
2022/03/27 05:02:23;;;;;;;;;;;9.50;86.60;;;;;;5026623;28;19939;-78
2022/03/27 05:04:49;;;;;;;;;;;9.60;86.30;;;;;;5028491;28;20359;-78
2022/03/27 05:07:14;;;;;;;;;;;9.60;86.00;;;;;;5027419;28;19913;-78
2022/03/27 05:09:40;;;;;;;;;;;9.40;86.20;;;;;;5051600;22;20028;-78
2022/03/27 05:12:06;;;;;;;;;;;9.40;86.20;;;;;;5040429;28;19913;-78
2022/03/27 05:14:31;;;;;;;;;;;9.50;86.20;;;;;;5047311;28;19925;-78
2022/03/27 05:16:57;;;;;;;;;;;9.50;85.70;;;;;;5047561;28;19920;-78
2022/03/27 05:19:22;;;;;;;;;;;9.50;85.40;;;;;;5049640;28;19987;-78
2022/03/27 05:21:47;;;;;;;;;;;9.50;85.40;;;;;;5050092;28;19923;-78
2022/03/27 05:24:13;;;;;;;;;;;9.50;85.20;;;;;;5066086;28;20286;-78
2022/03/27 05:26:39;;;;;;;;;;;9.50;85.30;;;;;;5050043;28;19933;-78
2022/03/27 05:29:06;;;;;;;;;;;9.40;84.90;;;;;;5038605;28;19913;-78
2022/03/27 05:31:32;;;;;;;;;;;9.50;84.90;;;;;;5057177;28;20044;-79
2022/03/27 05:33:57;;;;;;;;;;;9.50;84.90;;;;;;5052919;28;19983;-78
2022/03/27 05:36:23;;;;;;;;;;;9.40;84.70;;;;;;5054215;28;19913;-78
2022/03/27 05:38:49;;;;;;;;;;;9.30;84.80;;;;;;5055219;28;19921;-78
2022/03/27 05:41:14;;;;;;;;;;;9.20;84.80;;;;;;5052443;28;19912;-78
2022/03/27 05:43:41;;;;;;;;;;;9.10;85.10;;;;;;5068762;28;19917;-78
2022/03/27 05:46:07;;;;;;;;;;;9.10;85.50;;;;;;5050751;28;19989;-78
2022/03/27 05:48:32;;;;;;;;;;;9.20;85.10;;;;;;5053392;28;20007;-77
2022/03/27 05:50:58;;;;;;;;;;;9.20;84.90;;;;;;5056194;28;19916;-83
2022/03/27 05:53:23;;;;;;;;;;;9.20;84.90;;;;;;5054600;28;19923;-82
2022/03/27 05:55:49;;;;;;;;;;;9.30;84.90;;;;;;5057427;28;19928;-81
2022/03/27 05:58:16;;;;;;;;;;;9.30;84.60;;;;;;5070410;28;19958;-80
2022/03/27 06:00:42;;;;;;;;;;;9.40;84.20;;;;;;5065848;28;19944;-81
2022/03/27 06:03:07;;;;;;;;;;;9.40;84.10;;;;;;5053080;28;20367;-78
2022/03/27 06:05:33;;;;;;;;;;;9.40;84.50;;;;;;5050281;28;19919;-79
2022/03/27 06:07:59;;;;;;;;;;;9.60;83.60;;;;;;5069745;28;20000;-80
2022/03/27 06:10:31;;;;;;;;;;;9.50;83.90;;;;;;5048563;28;19999;-81
2022/03/27 06:12:57;;;;;;;;;;;9.30;83.90;;;;;;5054594;28;19978;-82
2022/03/27 06:15:22;;;;;;;;;;;9.30;83.80;;;;;;5052568;28;19913;-81
2022/03/27 06:17:48;;;;;;;;;;;9.50;83.50;;;;;;5053258;28;19924;-82
2022/03/27 06:20:21;;;;;;;;;;;9.40;83.60;;;;;;5052986;28;19920;-83
2022/03/27 06:22:47;;;;;;;;;;;9.50;83.30;;;;;;5055140;28;19932;-83
2022/03/27 06:25:13;;;;;;;;;;;9.20;83.50;;;;;;5069886;28;19916;-84
2022/03/27 06:27:39;;;;;;;;;;;9.30;83.70;;;;;;5053947;28;19920;-83
2022/03/27 06:30:08;;;;;;;;;;;9.40;83.40;;;;;;5052779;28;19913;-82
2022/03/27 06:32:36;;;;;;;;;;;9.50;83.00;;;;;;5052160;28;19912;-81
2022/03/27 06:35:01;;;;;;;;;;;9.40;83.30;;;;;;5052968;28;19912;-83
2022/03/27 06:37:27;;;;;;;;;;;9.20;83.70;;;;;;5070829;28;19971;-84
2022/03/27 06:39:54;;;;;;;;;;;9.10;84.10;;;;;;5054179;28;20425;-84
2022/03/27 06:42:20;;;;;;;;;;;8.90;84.60;;;;;;5069322;28;19996;-85
2022/03/27 06:44:46;;;;;;;;;;;9.00;84.50;;;;;;5055231;28;19963;-83
2022/03/27 06:47:11;;;;;;;;;;;9.00;84.30;;;;;;5050791;28;19987;-82
2022/03/27 06:49:36;;;;;;;;;;;9.00;84.30;;;;;;5063788;28;19913;-81
2022/03/27 06:52:02;;;;;;;;;;;9.20;83.60;;;;;;5061592;28;19935;-81
2022/03/27 06:54:29;;;;;;;;;;;9.20;83.50;;;;;;5055536;28;19917;-81
2022/03/27 06:56:55;;;;;;;;;;;9.20;84.00;;;;;;5052717;28;19913;-81
2022/03/27 06:59:20;;;;;;;;;;;9.20;83.70;;;;;;5050777;28;19939;-81
2022/03/27 07:04:30;;;;;;;;;;;9.40;83.60;;;;;;5051565;28;20008;-81
2022/03/27 07:06:55;;;;;;;;;;;9.50;82.70;;;;;;5053130;28;19949;-81
2022/03/27 07:09:21;;;;;;;;;;;9.30;83.00;;;;;;5051723;28;19920;-82
2022/03/27 07:11:46;;;;;;;;;;;9.30;83.10;;;;;;5051946;28;20415;-80
2022/03/27 07:14:12;;;;;;;;;;;9.30;83.20;;;;;;5051685;28;20252;-80
2022/03/27 07:16:38;;;;;;;;;;;9.20;83.40;;;;;;5062770;28;19996;-82
2022/03/27 07:19:04;;;;;;;;;;;9.30;83.40;;;;;;5046469;28;20487;-83
2022/03/27 07:21:29;;;;;;;;;;;9.50;82.20;;;;;;5053412;28;20383;-82
2022/03/27 07:23:55;;;;;;;;;;;9.50;82.10;;;;;;5062772;28;19993;-81
2022/03/27 07:26:21;;;;;;;;;;;9.40;82.60;;;;;;5060688;28;19913;-80
2022/03/27 07:28:47;;;;;;;;;;;9.50;82.20;;;;;;5059654;28;19912;-81
2022/03/27 07:31:13;;;;;;;;;;;9.50;82.20;;;;;;5052941;28;19915;-82
2022/03/27 07:33:38;;;;;;;;;;;9.80;81.20;;;;;;5054131;28;19917;-80
2022/03/27 07:36:04;;;;;;;;;;;9.80;80.40;;;;;;5062347;28;19919;-82
2022/03/27 07:38:30;;;;;;;;;;;9.60;81.30;;;;;;5071692;28;20000;-81
2022/03/27 07:40:55;;;;;;;;;;;9.70;81.40;;;;;;5051793;28;19999;-82
2022/03/27 07:43:21;;;;;;;;;;;9.80;80.90;;;;;;5067981;28;19952;-81
2022/03/27 07:45:46;;;;;;;;;;;9.90;80.60;;;;;;5066100;28;20431;-80
2022/03/27 07:48:12;;;;;;;;;;;9.70;81.40;;;;;;5051317;28;19913;-80
2022/03/27 07:50:37;;;;;;;;;;;9.60;81.90;;;;;;5064513;28;19917;-80
2022/03/27 07:53:03;;;;;;;;;;;9.70;82.10;;;;;;5050797;28;19920;-81
2022/03/27 07:55:29;;;;;;;;;;;9.60;81.90;;;;;;5050867;28;20389;-80
2022/03/27 07:57:55;;;;;;;;;;;9.80;81.90;;;;;;5050749;28;20019;-80
2022/03/27 08:00:21;;;;;;;;;;;10.00;81.50;;;;;;5049165;28;20370;-80
2022/03/27 08:02:46;;;;;;;;;;;10.10;79.80;;;;;;5067027;28;19924;-81
2022/03/27 08:05:12;;;;;;;;;;;10.20;80.30;;;;;;5055693;28;19913;-81
2022/03/27 08:07:38;;;;;;;;;;;10.10;80.40;;;;;;5055767;28;20006;-81
2022/03/27 08:10:04;;;;;;;;;;;10.10;80.50;;;;;;5067006;28;20015;-81
2022/03/27 08:12:29;;;;;;;;;;;10.10;80.40;;;;;;5071189;28;19920;-81
2022/03/27 08:14:56;;;;;;;;;;;10.10;80.40;;;;;;5080348;28;19913;-82
2022/03/27 08:17:21;;;;;;;;;;;10.00;80.40;;;;;;5058111;28;19921;-81
2022/03/27 08:19:49;;;;;;;;;;;10.20;79.30;;;;;;5052092;28;20351;-80
2022/03/27 08:22:14;;;;;;;;;;;10.30;79.50;;;;;;5052566;28;19975;-81
2022/03/27 08:24:40;;;;;;;;;;;10.20;80.20;;;;;;5052600;28;19920;-81
2022/03/27 08:27:07;;;;;;;;;;;10.20;80.00;;;;;;5052127;28;19945;-81
2022/03/27 08:29:37;;;;;;;;;;;10.20;80.20;;;;;;5067166;28;19909;-82
2022/03/27 08:32:03;;;;;;;;;;;10.30;79.60;;;;;;5050445;28;19999;-82
2022/03/27 08:34:30;;;;;;;;;;;10.30;79.80;;;;;;5066240;28;19920;-84
2022/03/27 08:36:56;;;;;;;;;;;10.30;79.30;;;;;;5065341;28;20283;-82
2022/03/27 08:39:22;;;;;;;;;;;10.30;80.30;;;;;;5061266;28;19916;-81
2022/03/27 08:41:48;;;;;;;;;;;10.30;79.90;;;;;;5043371;28;19927;-82
2022/03/27 08:44:15;;;;;;;;;;;10.30;79.70;;;;;;5052221;28;20271;-82
2022/03/27 08:46:42;;;;;;;;;;;10.30;79.50;;;;;;5069105;28;19913;-79
2022/03/27 08:49:09;;;;;;;;;;;10.40;79.10;;;;;;5067322;28;20019;-83
2022/03/27 08:51:47;;;;;;;;;;;10.70;79.10;;;;;;5052227;28;20022;-81
2022/03/27 08:54:14;;;;;;;;;;;11.20;76.30;;;;;;5068413;28;19956;-83
2022/03/27 08:56:39;;;;;;;;;;;11.10;76.50;;;;;;5056039;28;19923;-85
2022/03/27 08:59:08;;;;;;;;;;;11.50;75.20;;;;;;5054147;28;19913;-83
2022/03/27 09:01:34;;;;;;;;;;;11.60;74.90;;;;;;5051997;28;19943;-82
2022/03/27 09:03:59;;;;;;;;;;;11.60;74.30;;;;;;5053672;28;19925;-83
2022/03/27 09:06:27;;;;;;;;;;;11.60;74.80;;;;;;5055542;28;19912;-83
2022/03/27 09:08:53;;;;;;;;;;;11.70;73.70;;;;;;5068520;28;19958;-82
2022/03/27 09:11:19;;;;;;;;;;;11.50;74.20;;;;;;5047077;28;19983;-82
2022/03/27 09:13:48;;;;;;;;;;;11.50;74.30;;;;;;5066934;28;19909;-82
2022/03/27 09:16:14;;;;;;;;;;;11.50;73.90;;;;;;5050178;28;19988;-85
2022/03/27 09:18:51;;;;;;;;;;;11.60;73.80;;;;;;5066332;28;19959;-82
2022/03/27 09:21:23;;;;;;;;;;;11.80;73.20;;;;;;5065593;28;20302;-84
2022/03/27 09:23:55;;;;;;;;;;;12.10;72.70;;;;;;5052803;28;19921;-86
2022/03/27 09:26:21;;;;;;;;;;;11.70;72.90;;;;;;5048202;28;19909;-85
2022/03/27 09:28:48;;;;;;;;;;;11.50;74.80;;;;;;5053542;28;20265;-85
2022/03/27 09:31:18;;;;;;;;;;;11.40;75.10;;;;;;5067904;28;20351;-87
2022/03/27 09:33:47;;;;;;;;;;;11.60;75.10;;;;;;5068581;28;20410;-82
2022/03/27 09:36:13;;;;;;;;;;;11.70;74.70;;;;;;5069606;28;19915;-85
2022/03/27 09:38:38;;;;;;;;;;;11.70;75.10;;;;;;5048239;28;20007;-83
2022/03/27 09:41:04;;;;;;;;;;;11.80;74.20;;;;;;5052124;28;20008;-82
2022/03/27 09:43:30;;;;;;;;;;;11.90;74.60;;;;;;5063621;28;19916;-86
2022/03/27 09:46:00;;;;;;;;;;;11.80;75.10;;;;;;5078103;28;19923;-86
2022/03/27 09:48:26;;;;;;;;;;;11.70;75.10;;;;;;5082124;28;19928;-85
2022/03/27 09:50:53;;;;;;;;;;;11.90;75.70;;;;;;5052628;28;20269;-88
2022/03/27 09:53:30;;;;;;;;;;;12.10;74.80;;;;;;5053616;28;19928;-86
2022/03/27 09:55:58;;;;;;;;;;;12.00;73.40;;;;;;5067460;28;19909;-85
2022/03/27 09:58:33;;;;;;;;;;;12.30;73.60;;;;;;5068440;28;19931;-87
2022/03/27 10:01:13;;;;;;;;;;;12.30;72.40;;;;;;5051595;28;19913;-87
2022/03/27 10:03:59;;;;;;;;;;;12.40;71.10;;;;;;5061668;28;19925;-86
2022/03/27 10:06:26;;;;;;;;;;;12.60;70.70;;;;;;5063981;28;20012;-86
2022/03/27 10:09:00;;;;;;;;;;;12.60;70.40;;;;;;5044519;28;19920;-85
2022/03/27 10:11:27;;;;;;;;;;;12.50;71.20;;;;;;5068128;28;19909;-87
2022/03/27 10:13:53;;;;;;;;;;;12.20;72.60;;;;;;5050536;28;19913;-86
2022/03/27 10:16:29;;;;;;;;;;;12.10;73.10;;;;;;5065599;28;20011;-86
2022/03/27 10:19:05;;;;;;;;;;;12.10;72.60;;;;;;5067913;28;20269;-85
2022/03/27 10:21:33;;;;;;;;;;;12.10;74.30;;;;;;5052250;28;19912;-86
2022/03/27 10:24:06;;;;;;;;;;;12.00;74.70;;;;;;5052995;28;20019;-85
2022/03/27 10:26:34;;;;;;;;;;;12.00;74.70;;;;;;5067078;28;20061;-86
2022/03/27 10:29:01;;;;;;;;;;;12.00;74.60;;;;;;5068339;28;19913;-86
2022/03/27 10:31:26;;;;;;;;;;;12.10;74.90;;;;;;5052410;28;19974;-85
2022/03/27 10:33:54;;;;;;;;;;;12.00;74.80;;;;;;5069146;28;19920;-85
2022/03/27 10:36:29;;;;;;;;;;;12.10;74.50;;;;;;5060935;28;19939;-85
2022/03/27 10:39:10;;;;;;;;;;;12.00;74.10;;;;;;5060018;28;19917;-83
2022/03/27 10:41:50;;;;;;;;;;;12.00;75.20;;;;;;5053855;28;19972;-83
2022/03/27 10:44:31;;;;;;;;;;;11.90;74.70;;;;;;5053436;28;20046;-85
2022/03/27 10:47:16;;;;;;;;;;;12.10;75.50;;;;;;5049763;28;19917;-84
2022/03/27 10:49:42;;;;;;;;;;;12.20;74.30;;;;;;5050985;28;19924;-84
2022/03/27 10:52:08;;;;;;;;;;;12.20;73.70;;;;;;5052071;28;20358;-85
2022/03/27 10:54:52;;;;;;;;;;;12.20;73.80;;;;;;5066540;28;20034;-83
2022/03/27 10:57:31;;;;;;;;;;;12.10;74.50;;;;;;5039000;28;20364;-85
2022/03/27 10:59:57;;;;;;;;;;;12.10;74.10;;;;;;5039179;28;19913;-85
2022/03/27 11:02:44;;;;;;;;;;;12.10;73.00;;;;;;5053059;28;19920;-83
2022/03/27 11:05:30;;;;;;;;;;;12.20;74.70;;;;;;5068329;28;20398;-87
2022/03/27 11:08:14;;;;;;;;;;;12.20;71.80;;;;;;5045807;28;19978;-88
2022/03/27 11:10:40;;;;;;;;;;;12.30;73.20;;;;;;5044930;28;19956;-84
2022/03/27 11:13:25;;;;;;;;;;;12.30;73.00;;;;;;5068151;28;20569;-86
2022/03/27 11:16:05;;;;;;;;;;;12.40;72.70;;;;;;5067896;28;19913;-87
2022/03/27 11:18:39;;;;;;;;;;;12.60;72.00;;;;;;5068220;28;19908;-85
2022/03/27 11:21:07;;;;;;;;;;;12.60;72.40;;;;;;5053002;28;19913;-85
2022/03/27 11:23:34;;;;;;;;;;;12.60;73.10;;;;;;5054069;28;19920;-85
2022/03/27 11:26:00;;;;;;;;;;;12.80;73.40;;;;;;5053628;28;20355;-84
2022/03/27 11:28:41;;;;;;;;;;;12.80;72.20;;;;;;5062690;28;19901;-85
2022/03/27 11:31:10;;;;;;;;;;;12.80;71.40;;;;;;5057383;28;19928;-86
2022/03/27 11:33:37;;;;;;;;;;;12.80;72.00;;;;;;5072799;28;20000;-86
2022/03/27 11:36:09;;;;;;;;;;;12.80;70.60;;;;;;5057069;28;19913;-86
2022/03/27 11:38:35;;;;;;;;;;;12.90;70.10;;;;;;5067638;28;19912;-87
2022/03/27 11:41:20;;;;;;;;;;;12.90;71.10;;;;;;5071735;28;19917;-84
2022/03/27 11:43:45;;;;;;;;;;;13.10;69.50;;;;;;5063478;28;19921;-83
2022/03/27 11:46:19;;;;;;;;;;;13.00;70.40;;;;;;5052078;28;19909;-82
2022/03/27 11:48:52;;;;;;;;;;;13.00;71.60;;;;;;5050818;28;19913;-82
2022/03/27 11:51:19;;;;;;;;;;;13.10;69.60;;;;;;5049412;28;19932;-82
2022/03/27 11:53:44;;;;;;;;;;;13.20;70.80;;;;;;5051530;28;19954;-82
2022/03/27 11:56:11;;;;;;;;;;;13.00;68.90;;;;;;5051124;28;20007;-84
2022/03/27 11:58:38;;;;;;;;;;;13.10;68.80;;;;;;5050196;28;19913;-85
2022/03/27 12:01:10;;;;;;;;;;;13.10;69.70;;;;;;5064715;28;19967;-83
2022/03/27 12:03:39;;;;;;;;;;;13.10;69.00;;;;;;5049905;28;19924;-83
2022/03/27 12:06:08;;;;;;;;;;;13.10;69.60;;;;;;5052271;28;19909;-83
2022/03/27 12:08:35;;;;;;;;;;;13.50;67.30;;;;;;5056359;28;19963;-83
2022/03/27 12:11:04;;;;;;;;;;;13.50;68.80;;;;;;5059589;28;19913;-84
2022/03/27 12:13:38;;;;;;;;;;;13.60;68.30;;;;;;5057486;28;19913;-84
2022/03/27 12:16:04;;;;;;;;;;;13.80;69.60;;;;;;5051378;28;19920;-84
2022/03/27 12:18:39;;;;;;;;;;;13.80;68.50;;;;;;5047234;28;19924;-83
2022/03/27 12:21:06;;;;;;;;;;;13.70;68.40;;;;;;5054934;28;20298;-81
2022/03/27 12:23:33;;;;;;;;;;;13.60;67.50;;;;;;5059119;28;19928;-86
2022/03/27 12:25:58;;;;;;;;;;;13.60;68.40;;;;;;5075520;28;19940;-83
2022/03/27 12:31:18;;;;;;;;;;;13.60;65.50;;;;;;5053001;28;19923;-84
2022/03/27 12:33:43;;;;;;;;;;;13.60;65.40;;;;;;5053663;28;19913;-87
2022/03/27 12:36:10;;;;;;;;;;;13.60;64.90;;;;;;5054690;28;20248;-88
2022/03/27 12:38:36;;;;;;;;;;;13.60;65.70;;;;;;5077098;28;20339;-85
2022/03/27 12:41:02;;;;;;;;;;;13.60;63.70;;;;;;5064502;28;19917;-86
2022/03/27 12:43:28;;;;;;;;;;;13.80;64.30;;;;;;5078268;28;19943;-86
2022/03/27 12:45:57;;;;;;;;;;;13.80;64.80;;;;;;5065875;28;19988;-87
2022/03/27 12:48:25;;;;;;;;;;;13.80;64.40;;;;;;5077023;28;19917;-85
2022/03/27 12:50:55;;;;;;;;;;;13.80;64.30;;;;;;5070893;28;19948;-87
2022/03/27 12:53:21;;;;;;;;;;;13.90;65.60;;;;;;5055831;28;19924;-83
2022/03/27 12:55:55;;;;;;;;;;;14.10;63.40;;;;;;5059323;28;19913;-84
2022/03/27 12:58:37;;;;;;;;;;;14.20;62.30;;;;;;5069939;28;19967;-83
2022/03/27 13:01:06;;;;;;;;;;;14.10;63.70;;;;;;5053797;28;19940;-85
2022/03/27 13:03:32;;;;;;;;;;;14.20;66.00;;;;;;5056580;28;19997;-83
2022/03/27 13:05:57;;;;;;;;;;;14.20;64.00;;;;;;5070496;28;19912;-83
2022/03/27 13:08:26;;;;;;;;;;;14.20;64.70;;;;;;5071270;28;19927;-84
2022/03/27 13:10:56;;;;;;;;;;;14.20;64.10;;;;;;5060563;28;19913;-84
2022/03/27 13:13:30;;;;;;;;;;;14.30;63.90;;;;;;5058079;28;19917;-82
2022/03/27 13:15:57;;;;;;;;;;;14.40;62.80;;;;;;5052963;28;19917;-83
2022/03/27 13:18:32;;;;;;;;;;;14.50;62.90;;;;;;5072236;28;19992;-86
2022/03/27 13:21:11;;;;;;;;;;;14.50;60.90;;;;;;5087086;28;19988;-87
2022/03/27 13:23:37;;;;;;;;;;;14.50;62.80;;;;;;5062399;28;19921;-86
2022/03/27 13:26:02;;;;;;;;;;;14.50;62.50;;;;;;5076267;28;19952;-86
2022/03/27 13:28:28;;;;;;;;;;;14.60;63.40;;;;;;5074431;28;20275;-86
2022/03/27 13:30:56;;;;;;;;;;;14.60;62.20;;;;;;5078932;28;19942;-88
2022/03/27 13:33:23;;;;;;;;;;;14.50;62.40;;;;;;5070183;28;19917;-82
2022/03/27 13:35:49;;;;;;;;;;;14.40;62.30;;;;;;5059699;28;19920;-84
2022/03/27 13:38:15;;;;;;;;;;;14.50;62.40;;;;;;5068790;28;19919;-85
2022/03/27 13:43:24;;;;;;;;;;;14.60;62.80;;;;;;5057310;28;19987;-83
2022/03/27 13:45:52;;;;;;;;;;;14.60;60.60;;;;;;5055315;28;19912;-88
2022/03/27 13:48:18;;;;;;;;;;;14.70;61.40;;;;;;5056737;28;19928;-86
2022/03/27 13:50:43;;;;;;;;;;;14.80;61.50;;;;;;5056479;28;19931;-86
2022/03/27 13:53:09;;;;;;;;;;;14.80;61.20;;;;;;5075675;28;19913;-86
2022/03/27 13:55:38;;;;;;;;;;;14.90;58.30;;;;;;5057391;28;19995;-90
2022/03/27 13:58:03;;;;;;;;;;;14.80;58.70;;;;;;5077939;28;19935;-85
2022/03/27 14:00:30;;;;;;;;;;;14.80;58.00;;;;;;5059893;28;19913;-87
2022/03/27 14:02:56;;;;;;;;;;;14.80;58.30;;;;;;5070093;28;19925;-86
2022/03/27 14:05:21;;;;;;;;;;;14.90;57.60;;;;;;5055128;28;19927;-87
2022/03/27 14:07:48;;;;;;;;;;;15.00;56.90;;;;;;5070433;28;19917;-86
2022/03/27 14:10:13;;;;;;;;;;;15.00;56.60;;;;;;5069530;28;19917;-87
2022/03/27 14:12:41;;;;;;;;;;;15.10;56.70;;;;;;5069641;28;19966;-87
2022/03/27 14:15:07;;;;;;;;;;;15.10;56.90;;;;;;5075810;28;19943;-83
2022/03/27 14:17:32;;;;;;;;;;;15.10;58.80;;;;;;5082406;28;20000;-86
2022/03/27 14:19:58;;;;;;;;;;;15.10;57.30;;;;;;5058713;28;19928;-86
2022/03/27 14:22:23;;;;;;;;;;;15.10;59.60;;;;;;5073694;28;20248;-85
2022/03/27 14:24:49;;;;;;;;;;;15.10;58.70;;;;;;5053128;28;19955;-86
2022/03/27 14:27:16;;;;;;;;;;;15.10;58.50;;;;;;5066547;28;19963;-89
2022/03/27 14:29:42;;;;;;;;;;;15.20;58.90;;;;;;5070287;28;20283;-87
2022/03/27 14:32:09;;;;;;;;;;;15.30;57.20;;;;;;5068691;28;19917;-86
2022/03/27 14:34:34;;;;;;;;;;;15.30;57.00;;;;;;5052458;28;19927;-86